createdAt,value
2023-06-19T00:00:14.243Z,34.03
2023-06-19T00:01:09.394Z,34.40
2023-06-19T00:02:04.604Z,34.48
2023-06-19T00:02:59.904Z,34.74
2023-06-19T00:03:55.062Z,35.27
2023-06-19T00:04:50.268Z,34.60
2023-06-19T00:05:45.429Z,34.71
2023-06-19T00:06:40.666Z,35.03
2023-06-19T00:07:35.756Z,34.57
2023-06-19T00:08:30.824Z,34.06
2023-06-19T00:09:25.845Z,34.31
2023-06-19T00:10:21.188Z,34.57
2023-06-19T00:11:16.018Z,34.43
2023-06-19T00:12:11.183Z,34.12
2023-06-19T00:13:06.419Z,34.63
2023-06-19T00:14:01.409Z,34.80
2023-06-19T00:14:56.420Z,34.80
2023-06-19T00:15:51.583Z,34.74
2023-06-19T00:16:46.677Z,34.92
2023-06-19T00:17:41.615Z,35.30
2023-06-19T00:18:36.643Z,36.09
2023-06-19T00:19:31.739Z,35.66
2023-06-19T00:20:26.976Z,35.66
2023-06-19T00:21:21.909Z,36.73
2023-06-19T00:22:16.965Z,37.15
2023-06-19T00:23:12.216Z,37.12
2023-06-19T00:24:07.155Z,36.54
2023-06-19T00:25:02.206Z,35.88
2023-06-19T00:25:57.251Z,36.19
2023-06-19T00:26:52.292Z,35.85
2023-06-19T00:27:47.366Z,37.32
2023-06-19T00:28:42.497Z,37.15
2023-06-19T00:29:37.495Z,36.41
2023-06-19T00:30:32.560Z,36.09
2023-06-19T00:31:27.706Z,36.09
2023-06-19T00:32:22.947Z,36.73
2023-06-19T00:33:18.903Z,36.70
2023-06-19T00:34:13.805Z,36.79
2023-06-19T00:35:09.000Z,36.79
2023-06-19T00:36:05.191Z,36.25
2023-06-19T00:37:00.429Z,36.31
2023-06-19T00:37:56.340Z,35.69
2023-06-19T00:38:51.371Z,35.69
2023-06-19T00:39:46.591Z,36.31
2023-06-19T00:40:42.242Z,38.28
2023-06-19T00:41:37.462Z,39.81
2023-06-19T00:42:33.914Z,41.22
2023-06-19T00:43:28.523Z,41.59
2023-06-19T00:44:23.683Z,41.06
2023-06-19T00:45:19.937Z,39.62
2023-06-19T00:46:15.188Z,39.81
2023-06-19T00:47:10.246Z,40.47
2023-06-19T00:48:06.781Z,41.76
2023-06-19T00:49:01.841Z,42.53
2023-06-19T00:49:57.602Z,42.40
2023-06-19T00:50:52.769Z,42.44
2023-06-19T00:51:47.996Z,42.06
2023-06-19T00:52:43.734Z,41.93
2023-06-19T00:53:39.174Z,40.23
2023-06-19T00:54:34.751Z,39.32
2023-06-19T00:55:29.959Z,39.29
2023-06-19T00:56:25.183Z,40.86
2023-06-19T00:57:21.059Z,40.86
2023-06-19T00:58:16.466Z,40.82
2023-06-19T00:59:11.635Z,41.39
2023-06-19T01:00:07.987Z,42.66
2023-06-19T01:01:09.364Z,42.88
2023-06-19T01:02:00.110Z,42.88
2023-06-19T01:02:54.277Z,43.01
2023-06-19T01:03:49.768Z,41.51
2023-06-19T01:04:45.334Z,40.04
2023-06-19T01:05:40.507Z,39.10
2023-06-19T01:06:36.413Z,38.74
2023-06-19T01:07:31.455Z,39.36
2023-06-19T01:08:26.965Z,40.27
2023-06-19T01:09:22.587Z,40.47
2023-06-19T01:10:17.791Z,40.70
2023-06-19T01:12:10.243Z,38.42
2023-06-19T01:13:04.489Z,38.78
2023-06-19T01:14:00.177Z,38.35
2023-06-19T01:14:55.288Z,38.07
2023-06-19T01:15:50.719Z,37.02
2023-06-19T01:16:46.428Z,36.83
2023-06-19T01:17:41.528Z,36.44
2023-06-19T01:18:37.321Z,36.16
2023-06-19T01:19:32.522Z,36.28
2023-06-19T01:20:27.825Z,36.50
2023-06-19T01:21:23.609Z,36.96
2023-06-19T01:22:18.787Z,38.28
2023-06-19T01:23:14.162Z,38.17
2023-06-19T01:24:10.214Z,37.69
2023-06-19T01:25:05.441Z,37.76
2023-06-19T01:26:01.175Z,37.62
2023-06-19T01:26:56.376Z,38.03
2023-06-19T01:27:51.438Z,38.31
2023-06-19T01:28:47.522Z,38.63
2023-06-19T01:31:05.938Z,38.78
2023-06-19T01:32:01.022Z,36.96
2023-06-19T01:32:56.273Z,37.09
2023-06-19T01:33:51.492Z,37.12
2023-06-19T01:34:46.586Z,37.62
2023-06-19T01:35:41.617Z,37.55
2023-06-19T01:36:36.811Z,37.42
2023-06-19T01:37:32.103Z,37.39
2023-06-19T01:38:27.104Z,38.42
2023-06-19T01:39:22.477Z,38.35
2023-06-19T01:40:17.466Z,38.14
2023-06-19T01:41:12.765Z,38.99
2023-06-19T01:42:07.783Z,39.32
2023-06-19T01:43:02.960Z,39.06
2023-06-19T01:43:58.309Z,39.55
2023-06-19T01:44:53.335Z,41.26
2023-06-19T01:45:48.492Z,40.19
2023-06-19T01:46:43.741Z,39.92
2023-06-19T01:47:38.915Z,39.96
2023-06-19T01:48:34.092Z,39.85
2023-06-19T01:49:29.388Z,39.10
2023-06-19T01:50:24.742Z,38.70
2023-06-19T01:51:19.622Z,38.88
2023-06-19T01:52:14.680Z,39.43
2023-06-19T01:53:09.833Z,39.89
2023-06-19T01:54:05.212Z,39.47
2023-06-19T01:55:00.145Z,39.29
2023-06-19T01:55:55.296Z,39.58
2023-06-19T01:56:50.464Z,38.99
2023-06-19T01:57:45.648Z,38.17
2023-06-19T01:58:40.982Z,38.31
2023-06-19T01:59:36.035Z,38.14
2023-06-19T02:00:31.155Z,38.78
2023-06-19T02:01:26.472Z,39.36
2023-06-19T02:02:21.516Z,40.19
2023-06-19T02:03:16.758Z,41.51
2023-06-19T02:04:12.009Z,41.43
2023-06-19T02:05:07.034Z,40.39
2023-06-19T02:06:02.176Z,39.55
2023-06-19T02:06:57.373Z,39.51
2023-06-19T02:07:52.514Z,40.78
2023-06-19T02:08:47.700Z,39.81
2023-06-19T02:09:42.911Z,39.58
2023-06-19T02:10:38.074Z,39.14
2023-06-19T02:11:33.372Z,39.06
2023-06-19T02:12:28.433Z,39.25
2023-06-19T02:13:23.623Z,38.81
2023-06-19T02:14:18.796Z,38.60
2023-06-19T02:15:14.113Z,39.29
2023-06-19T02:16:09.235Z,39.73
2023-06-19T02:17:04.287Z,40.47
2023-06-19T02:17:59.521Z,40.27
2023-06-19T02:18:54.635Z,39.85
2023-06-19T02:19:49.871Z,39.40
2023-06-19T02:20:45.033Z,39.10
2023-06-19T02:21:40.334Z,39.62
2023-06-19T02:22:35.355Z,40.47
2023-06-19T02:23:30.542Z,40.08
2023-06-19T02:24:25.918Z,40.19
2023-06-19T02:25:20.955Z,40.15
2023-06-19T02:26:16.084Z,39.92
2023-06-19T02:27:11.269Z,40.15
2023-06-19T02:28:06.412Z,40.62
2023-06-19T02:29:01.584Z,40.54
2023-06-19T02:29:56.798Z,41.51
2023-06-19T02:30:51.951Z,40.86
2023-06-19T02:31:47.254Z,39.43
2023-06-19T02:32:42.486Z,39.92
2023-06-19T02:33:37.503Z,41.26
2023-06-19T02:34:32.695Z,40.66
2023-06-19T02:35:28.011Z,39.81
2023-06-19T02:36:23.052Z,39.14
2023-06-19T02:37:18.244Z,39.14
2023-06-19T02:38:13.419Z,38.74
2023-06-19T02:39:08.551Z,39.73
2023-06-19T02:40:03.764Z,40.58
2023-06-19T02:40:59.024Z,40.15
2023-06-19T02:41:54.282Z,39.85
2023-06-19T02:42:49.306Z,40.15
2023-06-19T02:43:44.472Z,39.36
2023-06-19T02:44:39.827Z,39.92
2023-06-19T02:45:34.938Z,40.54
2023-06-19T02:46:30.074Z,40.04
2023-06-19T02:47:25.275Z,39.43
2023-06-19T02:48:20.415Z,40.94
2023-06-19T02:49:15.612Z,40.82
2023-06-19T02:50:10.781Z,41.10
2023-06-19T02:51:05.977Z,40.94
2023-06-19T02:52:01.231Z,41.10
2023-06-19T02:52:56.299Z,40.94
2023-06-19T02:53:51.434Z,41.39
2023-06-19T02:54:46.877Z,41.22
2023-06-19T02:55:41.747Z,41.02
2023-06-19T02:56:36.917Z,40.51
2023-06-19T02:57:32.256Z,41.64
2023-06-19T02:58:27.404Z,42.44
2023-06-19T02:59:22.745Z,42.35
2023-06-19T03:00:17.891Z,41.39
2023-06-19T03:01:13.267Z,40.43
2023-06-19T03:02:08.490Z,40.12
2023-06-19T03:03:03.627Z,40.51
2023-06-19T03:03:58.735Z,40.78
2023-06-19T03:04:54.131Z,39.89
2023-06-19T03:05:49.214Z,40.15
2023-06-19T03:06:44.444Z,40.00
2023-06-19T03:07:39.656Z,40.08
2023-06-19T03:08:34.864Z,41.18
2023-06-19T03:09:30.284Z,41.59
2023-06-19T03:10:25.333Z,40.98
2023-06-19T03:11:20.506Z,40.19
2023-06-19T03:12:15.840Z,39.62
2023-06-19T03:13:10.940Z,38.85
2023-06-19T03:14:06.338Z,38.74
2023-06-19T03:15:01.330Z,38.38
2023-06-19T03:15:56.581Z,38.14
2023-06-19T03:16:51.869Z,38.63
2023-06-19T03:17:47.089Z,38.63
2023-06-19T03:18:42.271Z,39.21
2023-06-19T03:19:37.694Z,40.00
2023-06-19T03:20:32.740Z,39.62
2023-06-19T03:21:27.976Z,39.77
2023-06-19T03:22:23.397Z,40.39
2023-06-19T03:23:18.582Z,40.08
2023-06-19T03:24:14.096Z,40.66
2023-06-19T03:25:09.172Z,39.47
2023-06-19T03:26:04.502Z,39.14
2023-06-19T03:26:59.817Z,38.67
2023-06-19T03:27:55.202Z,38.14
2023-06-19T03:28:50.527Z,38.14
2023-06-19T03:29:46.032Z,39.32
2023-06-19T03:30:41.234Z,38.88
2023-06-19T03:31:36.424Z,38.63
2023-06-19T03:32:32.570Z,38.07
2023-06-19T03:33:27.074Z,38.00
2023-06-19T03:34:22.389Z,36.99
2023-06-19T03:35:17.481Z,36.86
2023-06-19T03:36:12.792Z,36.35
2023-06-19T03:37:08.123Z,35.88
2023-06-19T03:38:03.312Z,35.88
2023-06-19T03:38:58.846Z,35.39
2023-06-19T03:39:53.879Z,36.47
2023-06-19T03:40:49.241Z,35.81
2023-06-19T03:41:44.546Z,35.66
2023-06-19T03:42:40.017Z,35.57
2023-06-19T03:43:35.386Z,35.94
2023-06-19T03:44:30.611Z,36.44
2023-06-19T03:45:25.828Z,37.42
2023-06-19T03:46:21.226Z,37.96
2023-06-19T03:47:16.371Z,38.00
2023-06-19T03:48:11.755Z,37.83
2023-06-19T03:49:06.969Z,37.15
2023-06-19T03:50:18.918Z,37.19
2023-06-19T03:50:58.552Z,37.45
2023-06-19T03:51:52.828Z,37.55
2023-06-19T03:52:48.307Z,36.89
2023-06-19T03:53:43.705Z,35.91
2023-06-19T03:54:38.715Z,34.57
2023-06-19T03:55:34.227Z,33.52
2023-06-19T03:56:29.409Z,32.50
2023-06-19T03:57:24.797Z,31.93
2023-06-19T03:58:20.048Z,31.98
2023-06-19T03:59:15.625Z,32.05
2023-06-19T04:00:10.935Z,31.81
2023-06-19T04:01:06.150Z,30.93
2023-06-19T04:02:01.417Z,30.84
2023-06-19T04:02:57.015Z,30.35
2023-06-19T04:03:52.364Z,30.44
2023-06-19T04:04:47.488Z,31.26
2023-06-19T04:05:42.744Z,31.45
2023-06-19T04:06:38.191Z,32.03
2023-06-19T04:07:33.388Z,33.62
2023-06-19T04:08:28.986Z,33.62
2023-06-19T04:09:24.115Z,34.63
2023-06-19T04:10:19.567Z,36.50
2023-06-19T04:11:14.881Z,36.12
2023-06-19T04:12:10.343Z,36.35
2023-06-19T04:13:05.760Z,37.25
2023-06-19T04:14:01.315Z,38.31
2023-06-19T04:14:56.473Z,39.29
2023-06-19T04:15:51.860Z,40.35
2023-06-19T04:16:47.264Z,40.35
2023-06-19T04:17:42.632Z,38.45
2023-06-19T04:18:38.157Z,40.78
2023-06-19T04:19:33.292Z,42.10
2023-06-19T04:20:28.890Z,42.61
2023-06-19T04:21:24.053Z,44.95
2023-06-19T04:22:19.504Z,44.62
2023-06-19T04:23:15.112Z,43.32
2023-06-19T04:24:10.373Z,45.94
2023-06-19T04:25:05.560Z,46.40
2023-06-19T04:26:01.062Z,46.82
2023-06-19T04:26:56.372Z,48.22
2023-06-19T04:27:51.672Z,48.90
2023-06-19T04:28:47.020Z,49.86
2023-06-19T04:29:42.339Z,49.83
2023-06-19T04:30:37.614Z,49.10
2023-06-19T04:31:33.091Z,48.76
2023-06-19T04:32:28.445Z,48.14
2023-06-19T04:33:24.192Z,51.15
2023-06-19T04:34:19.248Z,51.30
2023-06-19T04:35:14.711Z,50.22
2023-06-19T04:36:10.022Z,51.08
2023-06-19T04:37:05.475Z,49.04
2023-06-19T04:38:00.774Z,47.67
2023-06-19T04:38:56.275Z,48.59
2023-06-19T04:39:51.426Z,51.94
2023-06-19T04:40:46.924Z,51.46
2023-06-19T04:41:42.244Z,49.42
2023-06-19T04:42:37.682Z,49.60
2023-06-19T04:43:33.289Z,46.97
2023-06-19T04:44:28.506Z,44.62
2023-06-19T04:45:23.647Z,43.55
2023-06-19T04:46:19.072Z,43.59
2023-06-19T04:47:14.419Z,45.99
2023-06-19T04:48:09.802Z,44.05
2023-06-19T04:49:05.092Z,44.10
2023-06-19T04:50:00.551Z,41.31
2023-06-19T04:50:55.846Z,40.90
2023-06-19T04:51:51.209Z,38.85
2023-06-19T04:52:46.659Z,41.47
2023-06-19T04:53:42.106Z,44.57
2023-06-19T04:54:37.416Z,47.21
2023-06-19T04:55:32.884Z,49.83
2023-06-19T04:56:28.173Z,49.86
2023-06-19T04:57:23.669Z,52.67
2023-06-19T04:58:18.993Z,51.81
2023-06-19T04:59:14.343Z,48.14
2023-06-19T05:00:09.631Z,50.04
2023-06-19T05:01:05.145Z,51.24
2023-06-19T05:02:00.480Z,50.01
2023-06-19T05:02:55.999Z,48.59
2023-06-19T05:03:51.277Z,48.87
2023-06-19T05:04:46.737Z,49.98
2023-06-19T05:05:41.994Z,48.25
2023-06-19T05:06:37.337Z,48.47
2023-06-19T05:07:32.685Z,48.81
2023-06-19T05:08:28.170Z,49.13
2023-06-19T05:09:23.345Z,46.97
2023-06-19T05:10:18.831Z,47.03
2023-06-19T05:11:14.132Z,45.29
2023-06-19T05:12:09.487Z,43.01
2023-06-19T05:13:04.827Z,42.40
2023-06-19T05:14:00.311Z,44.38
2023-06-19T05:14:56.320Z,43.55
2023-06-19T05:15:51.899Z,42.53
2023-06-19T05:16:47.323Z,43.28
2023-06-19T05:17:42.715Z,44.10
2023-06-19T05:18:38.189Z,44.24
2023-06-19T05:19:33.144Z,45.00
2023-06-19T05:20:28.181Z,45.89
2023-06-19T05:21:23.401Z,45.59
2023-06-19T05:22:18.486Z,45.44
2023-06-19T05:23:13.709Z,43.28
2023-06-19T05:24:08.654Z,41.10
2023-06-19T05:25:03.691Z,38.35
2023-06-19T05:25:58.618Z,40.08
2023-06-19T05:26:53.707Z,37.86
2023-06-19T05:27:49.054Z,36.12
2023-06-19T05:28:43.839Z,33.14
2023-06-19T05:29:38.890Z,31.98
2023-06-19T05:30:34.063Z,30.37
2023-06-19T05:31:29.111Z,29.31
2023-06-19T05:32:24.373Z,32.07
2023-06-19T05:33:19.259Z,31.52
2023-06-19T05:34:14.404Z,29.06
2023-06-19T05:35:09.444Z,28.29
2023-06-19T05:36:04.535Z,26.43
2023-06-19T05:36:59.539Z,26.77
2023-06-19T05:37:54.647Z,25.73
2023-06-19T05:38:49.827Z,24.83
2023-06-19T05:39:45.355Z,25.92
2023-06-19T05:40:40.693Z,28.33
2023-06-19T05:41:36.151Z,27.84
2023-06-19T05:42:31.644Z,27.84
2023-06-19T05:43:26.881Z,26.92
2023-06-19T05:44:22.176Z,25.39
2023-06-19T05:45:17.809Z,24.87
2023-06-19T05:46:13.101Z,24.65
2023-06-19T05:47:08.359Z,24.29
2023-06-19T05:48:03.884Z,23.65
2023-06-19T05:48:59.110Z,23.31
2023-06-19T05:49:54.397Z,22.33
2023-06-19T05:50:49.748Z,23.13
2023-06-19T05:51:45.174Z,24.25
2023-06-19T05:52:40.647Z,24.52
2023-06-19T05:53:35.968Z,26.03
2023-06-19T05:54:31.287Z,27.90
2023-06-19T05:55:26.401Z,29.18
2023-06-19T05:56:22.291Z,29.33
2023-06-19T05:57:16.411Z,30.33
2023-06-19T05:58:11.520Z,31.81
2023-06-19T05:59:06.531Z,33.06
2023-06-19T06:00:01.598Z,33.06
2023-06-19T06:00:56.741Z,33.90
2023-06-19T06:01:52.032Z,34.57
2023-06-19T06:02:47.188Z,35.01
2023-06-19T06:03:41.987Z,35.06
2023-06-19T06:04:37.074Z,35.21
2023-06-19T06:05:32.187Z,34.48
2023-06-19T06:06:27.222Z,32.73
2023-06-19T06:07:22.416Z,33.12
2023-06-19T06:08:19.881Z,34.86
2023-06-19T06:09:14.933Z,36.86
2023-06-19T06:10:10.114Z,38.70
2023-06-19T06:11:05.201Z,39.43
2023-06-19T06:12:00.215Z,40.86
2023-06-19T06:12:55.437Z,40.35
2023-06-19T06:13:50.470Z,40.58
2023-06-19T06:14:45.434Z,41.68
2023-06-19T06:15:40.504Z,41.47
2023-06-19T06:16:35.728Z,41.55
2023-06-19T06:17:30.968Z,41.55
2023-06-19T06:18:25.803Z,41.84
2023-06-19T06:19:20.861Z,40.66
2023-06-19T06:20:15.877Z,41.26
2023-06-19T06:21:10.911Z,41.43
2023-06-19T06:22:06.520Z,40.74
2023-06-19T06:23:01.713Z,40.51
2023-06-19T06:23:57.211Z,40.86
2023-06-19T06:24:52.638Z,39.92
2023-06-19T06:25:47.992Z,39.55
2023-06-19T06:26:43.414Z,41.02
2023-06-19T06:27:39.082Z,42.74
2023-06-19T06:28:34.270Z,42.92
2023-06-19T06:29:29.724Z,41.72
2023-06-19T06:30:25.325Z,42.48
2023-06-19T06:31:24.589Z,41.76
2023-06-19T06:32:20.074Z,39.55
2023-06-19T06:33:15.404Z,39.14
2023-06-19T06:34:10.612Z,40.39
2023-06-19T06:35:06.050Z,41.02
2023-06-19T06:36:01.398Z,41.43
2023-06-19T06:37:05.178Z,43.10
2023-06-19T06:37:53.300Z,45.00
2023-06-19T06:38:47.711Z,45.00
2023-06-19T06:39:43.034Z,44.90
2023-06-19T06:40:38.579Z,44.14
2023-06-19T06:41:34.260Z,45.34
2023-06-19T06:42:29.521Z,46.97
2023-06-19T06:43:24.858Z,48.14
2023-06-19T06:44:20.388Z,48.73
2023-06-19T06:45:15.447Z,49.83
2023-06-19T06:46:10.646Z,50.62
2023-06-19T06:47:05.919Z,50.96
2023-06-19T06:48:00.931Z,52.73
2023-06-19T06:48:55.932Z,53.65
2023-06-19T06:49:50.972Z,54.42
2023-06-19T06:50:46.043Z,54.10
2023-06-19T06:51:41.063Z,54.20
2023-06-19T06:52:38.062Z,53.03
2023-06-19T06:53:32.975Z,51.59
2023-06-19T06:54:27.983Z,50.19
2023-06-19T06:55:23.024Z,49.48
2023-06-19T06:56:18.011Z,49.45
2023-06-19T06:57:13.317Z,50.19
2023-06-19T06:58:08.104Z,52.43
2023-06-19T06:59:03.144Z,53.89
2023-06-19T06:59:58.595Z,52.33
2023-06-19T07:00:53.890Z,52.27
2023-06-19T07:01:50.608Z,53.13
2023-06-19T07:02:46.418Z,55.54
2023-06-19T07:03:41.740Z,60.01
2023-06-19T07:04:37.142Z,58.79
2023-06-19T07:05:32.532Z,59.46
2023-06-19T07:06:28.441Z,61.34
2023-06-19T07:07:24.053Z,62.25
2023-06-19T07:08:19.692Z,61.52
2023-06-19T07:09:14.816Z,59.76
2023-06-19T07:10:10.432Z,58.87
2023-06-19T07:11:06.041Z,57.89
2023-06-19T07:12:01.652Z,56.48
2023-06-19T07:12:56.828Z,59.25
2023-06-19T07:13:53.232Z,62.91
2023-06-19T07:14:48.694Z,62.39
2023-06-19T07:15:44.418Z,61.34
2023-06-19T07:16:39.722Z,64.17
2023-06-19T07:17:35.208Z,66.73
2023-06-19T07:18:30.789Z,69.92
2023-06-19T07:19:26.138Z,71.17
2023-06-19T07:20:21.999Z,73.11
2023-06-19T07:21:17.224Z,73.75
2023-06-19T07:22:12.834Z,75.42
2023-06-19T07:23:08.604Z,75.69
2023-06-19T07:24:04.145Z,68.49
2023-06-19T07:24:59.512Z,72.35
2023-06-19T07:25:56.094Z,75.35
2023-06-19T07:26:51.687Z,76.32
2023-06-19T07:27:47.224Z,77.88
2023-06-19T07:28:42.616Z,77.96
2023-06-19T07:29:37.991Z,73.49
2023-06-19T07:30:33.939Z,74.74
2023-06-19T07:31:29.312Z,75.35
2023-06-19T07:32:25.366Z,77.88
2023-06-19T07:33:20.589Z,78.84
2023-06-19T07:35:41.125Z,78.54
2023-06-19T07:36:34.797Z,71.42
2023-06-19T07:37:30.057Z,66.52
2023-06-19T07:38:25.446Z,67.76
2023-06-19T07:39:20.978Z,64.82
2023-06-19T07:40:16.451Z,63.63
2023-06-19T07:41:11.854Z,69.63
2023-06-19T07:42:07.274Z,73.62
2023-06-19T07:43:02.615Z,76.95
2023-06-19T07:43:57.990Z,66.57
2023-06-19T07:44:53.626Z,62.67
2023-06-19T07:45:49.029Z,66.20
2023-06-19T07:46:44.553Z,69.92
2023-06-19T07:47:39.809Z,74.01
2023-06-19T07:48:35.295Z,74.01
2023-06-19T07:49:30.787Z,65.07
2023-06-19T07:50:27.760Z,64.61
2023-06-19T07:51:21.855Z,68.26
2023-06-19T07:52:17.126Z,70.27
2023-06-19T07:53:12.586Z,75.08
2023-06-19T07:54:08.091Z,80.36
2023-06-19T07:55:03.278Z,81.22
2023-06-19T07:55:58.654Z,79.59
2023-06-19T07:56:54.200Z,80.28
2023-06-19T07:57:49.443Z,81.22
2023-06-19T07:58:44.792Z,82.58
2023-06-19T07:59:40.211Z,83.08
2023-06-19T08:00:35.567Z,85.20
2023-06-19T08:01:31.245Z,86.71
2023-06-19T08:02:26.626Z,80.13
2023-06-19T08:03:21.929Z,72.03
2023-06-19T08:04:17.273Z,73.88
2023-06-19T08:05:12.919Z,75.69
2023-06-19T08:06:08.080Z,80.36
2023-06-19T08:07:04.004Z,82.34
2023-06-19T08:07:58.975Z,81.62
2023-06-19T08:08:54.536Z,82.10
2023-06-19T08:09:57.004Z,78.25
2023-06-19T08:10:46.380Z,72.85
2023-06-19T08:11:40.843Z,69.40
2023-06-19T08:12:36.054Z,69.22
2023-06-19T08:13:31.528Z,71.54
2023-06-19T08:14:26.747Z,74.15
2023-06-19T08:15:22.088Z,74.15
2023-06-19T08:16:17.853Z,73.95
2023-06-19T08:17:13.228Z,77.81
2023-06-19T08:18:08.790Z,78.32
2023-06-19T08:19:04.291Z,75.35
2023-06-19T08:19:59.900Z,73.04
2023-06-19T08:20:55.239Z,70.87
2023-06-19T08:21:50.997Z,75.56
2023-06-19T08:22:46.191Z,75.97
2023-06-19T08:23:41.700Z,75.15
2023-06-19T08:24:37.049Z,72.41
2023-06-19T08:25:32.471Z,75.01
2023-06-19T08:26:28.011Z,79.44
2023-06-19T08:27:23.429Z,78.32
2023-06-19T08:28:18.681Z,73.23
2023-06-19T08:29:14.252Z,69.69
2023-06-19T08:30:09.831Z,73.82
2023-06-19T08:31:05.255Z,79.14
2023-06-19T08:32:00.603Z,83.75
2023-06-19T08:32:56.071Z,90.07
2023-06-19T08:33:54.517Z,94.14
2023-06-19T08:34:47.080Z,93.72
2023-06-19T08:35:42.446Z,94.35
2023-06-19T08:36:38.206Z,93.82
2023-06-19T08:37:33.547Z,94.87
2023-06-19T08:38:28.922Z,96.29
2023-06-19T08:39:25.032Z,95.74
2023-06-19T08:40:19.853Z,97.25
2023-06-19T08:41:15.024Z,97.76
2023-06-19T08:42:10.609Z,104.49
2023-06-19T08:43:06.023Z,109.86
2023-06-19T08:44:01.841Z,107.94
2023-06-19T08:44:57.137Z,100.53
2023-06-19T08:45:52.776Z,100.11
2023-06-19T08:46:47.979Z,96.24
2023-06-19T08:47:43.421Z,93.51
2023-06-19T08:48:38.781Z,94.23
2023-06-19T08:49:34.320Z,102.00
2023-06-19T08:50:29.907Z,105.22
2023-06-19T08:51:25.211Z,106.83
2023-06-19T08:52:20.516Z,107.80
2023-06-19T08:53:16.111Z,104.23
2023-06-19T08:54:11.500Z,108.93
2023-06-19T08:55:06.984Z,115.72
2023-06-19T08:56:02.483Z,118.35
2023-06-19T08:56:58.011Z,119.54
2023-06-19T08:57:53.451Z,120.40
2023-06-19T08:58:48.833Z,120.92
2023-06-19T08:59:44.253Z,120.75
2023-06-19T09:00:40.092Z,123.06
2023-06-19T09:01:35.307Z,125.85
2023-06-19T09:02:30.727Z,130.37
2023-06-19T09:03:26.283Z,134.58
2023-06-19T09:04:21.645Z,111.85
2023-06-19T09:05:17.186Z,118.43
2023-06-19T09:06:12.927Z,124.16
2023-06-19T09:07:07.939Z,123.43
2023-06-19T09:08:03.485Z,120.84
2023-06-19T09:08:58.907Z,127.29
2023-06-19T09:09:54.295Z,134.14
2023-06-19T09:10:49.852Z,132.02
2023-06-19T09:11:45.135Z,125.56
2023-06-19T09:12:40.638Z,126.81
2023-06-19T09:13:36.275Z,134.36
2023-06-19T09:14:31.494Z,142.26
2023-06-19T09:15:26.874Z,150.61
2023-06-19T09:16:22.513Z,156.25
2023-06-19T09:17:17.760Z,155.52
2023-06-19T09:18:13.120Z,161.86
2023-06-19T09:19:08.501Z,161.39
2023-06-19T09:20:03.967Z,157.88
2023-06-19T09:20:59.367Z,154.09
2023-06-19T09:21:54.857Z,157.43
2023-06-19T09:22:50.365Z,156.69
2023-06-19T09:23:46.042Z,154.51
2023-06-19T09:24:41.453Z,139.64
2023-06-19T09:25:36.880Z,153.94
2023-06-19T09:26:32.251Z,161.86
2023-06-19T09:27:27.737Z,173.47
2023-06-19T09:28:23.485Z,173.47
2023-06-19T09:29:21.336Z,170.11
2023-06-19T09:30:14.523Z,175.10
2023-06-19T09:31:10.010Z,180.02
2023-06-19T09:32:05.518Z,185.01
2023-06-19T09:33:01.183Z,190.47
2023-06-19T09:33:56.499Z,193.73
2023-06-19T09:34:51.747Z,199.02
2023-06-19T09:35:47.414Z,195.58
2023-06-19T09:36:42.748Z,195.35
2023-06-19T09:37:38.284Z,197.23
2023-06-19T09:38:33.860Z,191.36
2023-06-19T09:39:29.277Z,188.61
2023-06-19T09:40:25.052Z,178.67
2023-06-19T09:41:20.501Z,176.77
2023-06-19T09:42:15.551Z,169.07
2023-06-19T09:43:11.036Z,181.98
2023-06-19T09:44:06.494Z,162.96
2023-06-19T09:45:01.904Z,175.66
2023-06-19T09:45:57.574Z,178.29
2023-06-19T09:46:52.932Z,183.18
2023-06-19T09:47:50.523Z,194.08
2023-06-19T09:48:43.935Z,200.97
2023-06-19T09:49:39.378Z,198.54
2023-06-19T09:50:34.982Z,195.35
2023-06-19T09:51:30.327Z,184.99
2023-06-19T09:52:25.842Z,196.40
2023-06-19T09:53:21.443Z,202.46
2023-06-19T09:54:16.907Z,205.76
2023-06-19T09:55:12.423Z,213.25
2023-06-19T09:56:08.017Z,213.67
2023-06-19T09:57:03.634Z,206.54
2023-06-19T09:57:58.863Z,214.79
2023-06-19T09:58:54.269Z,222.35
2023-06-19T09:59:49.883Z,216.34
2023-06-19T10:00:45.110Z,219.97
2023-06-19T10:01:40.861Z,214.50
2023-06-19T10:02:36.247Z,210.92
2023-06-19T10:03:31.736Z,206.54
2023-06-19T10:04:27.076Z,181.58
2023-06-19T10:05:22.619Z,194.65
2023-06-19T10:06:18.230Z,201.22
2023-06-19T10:07:13.780Z,219.67
2023-06-19T10:08:09.265Z,221.60
2023-06-19T10:09:04.717Z,233.59
2023-06-19T10:10:00.204Z,232.93
2023-06-19T10:10:55.926Z,225.41
2023-06-19T10:11:51.221Z,217.06
2023-06-19T10:12:46.854Z,226.34
2023-06-19T10:13:42.375Z,231.29
2023-06-19T10:14:37.938Z,236.45
2023-06-19T10:15:33.368Z,244.93
2023-06-19T10:16:30.209Z,249.77
2023-06-19T10:17:24.259Z,248.26
2023-06-19T10:18:19.771Z,224.64
2023-06-19T10:19:15.090Z,230.15
2023-06-19T10:20:10.688Z,244.20
2023-06-19T10:21:06.410Z,260.48
2023-06-19T10:22:01.663Z,267.93
2023-06-19T10:22:57.065Z,269.69
2023-06-19T10:23:52.742Z,265.54
2023-06-19T10:24:48.246Z,218.21
2023-06-19T10:25:43.708Z,227.91
2023-06-19T10:26:39.469Z,246.40
2023-06-19T10:27:34.666Z,254.62
2023-06-19T10:28:30.150Z,262.36
2023-06-19T10:29:25.392Z,213.80
2023-06-19T10:30:21.071Z,233.26
2023-06-19T10:31:16.306Z,238.00
2023-06-19T10:32:11.736Z,245.11
2023-06-19T10:33:07.144Z,245.84
2023-06-19T10:34:02.626Z,261.73
2023-06-19T10:34:58.267Z,261.94
2023-06-19T10:35:53.695Z,260.07
2023-06-19T10:36:49.450Z,265.54
2023-06-19T10:37:44.615Z,265.76
2023-06-19T10:38:39.996Z,262.36
2023-06-19T10:39:35.473Z,246.21
2023-06-19T10:40:31.058Z,255.81
2023-06-19T10:41:26.561Z,263.20
2023-06-19T10:42:21.794Z,269.69
2023-06-19T10:43:17.364Z,271.70
2023-06-19T10:44:12.759Z,272.83
2023-06-19T10:45:08.361Z,272.37
2023-06-19T10:46:03.938Z,272.15
2023-06-19T10:46:59.174Z,255.21
2023-06-19T10:47:54.504Z,246.21
2023-06-19T10:48:50.094Z,258.23
2023-06-19T10:49:45.392Z,264.90
2023-06-19T10:50:41.025Z,259.45
2023-06-19T10:51:36.548Z,254.62
2023-06-19T10:52:31.965Z,220.41
2023-06-19T10:53:27.455Z,256.21
2023-06-19T10:54:22.909Z,273.51
2023-06-19T10:55:18.605Z,298.38
2023-06-19T10:56:13.929Z,307.61
2023-06-19T10:57:09.303Z,298.38
2023-06-19T10:58:04.876Z,325.62
2023-06-19T10:59:00.267Z,338.73
2023-06-19T10:59:55.706Z,331.21
2023-06-19T11:00:51.248Z,328.89
2023-06-19T11:01:46.694Z,328.23
2023-06-19T11:02:41.995Z,332.22
2023-06-19T11:03:37.525Z,298.93
2023-06-19T11:04:32.960Z,313.79
2023-06-19T11:05:28.648Z,303.63
2023-06-19T11:06:24.205Z,288.42
2023-06-19T11:07:19.812Z,294.90
2023-06-19T11:08:15.127Z,315.00
2023-06-19T11:09:10.664Z,329.88
2023-06-19T11:10:06.264Z,343.34
2023-06-19T11:11:01.932Z,347.34
2023-06-19T11:11:57.200Z,368.81
2023-06-19T11:12:52.714Z,388.14
2023-06-19T11:13:48.308Z,389.96
2023-06-19T11:14:43.909Z,398.58
2023-06-19T11:15:39.301Z,415.21
2023-06-19T11:16:34.982Z,395.28
2023-06-19T11:17:30.216Z,383.24
2023-06-19T11:18:25.654Z,415.99
2023-06-19T11:19:21.155Z,439.86
2023-06-19T11:20:16.757Z,459.57
2023-06-19T11:21:12.275Z,470.93
2023-06-19T11:22:07.624Z,472.93
2023-06-19T11:23:03.171Z,466.97
2023-06-19T11:23:58.568Z,484.97
2023-06-19T11:24:54.041Z,393.64
2023-06-19T11:25:49.617Z,410.11
2023-06-19T11:26:45.006Z,465.02
2023-06-19T11:27:40.537Z,508.64
2023-06-19T11:28:38.785Z,532.19
2023-06-19T11:29:31.617Z,501.76
2023-06-19T11:30:27.282Z,525.07
2023-06-19T11:31:22.675Z,591.16
2023-06-19T11:32:18.120Z,624.38
2023-06-19T11:33:13.632Z,623.79
2023-06-19T11:34:08.967Z,595.39
2023-06-19T11:35:04.479Z,520.56
2023-06-19T11:36:00.124Z,474.95
2023-06-19T11:36:55.449Z,459.25
2023-06-19T11:37:50.891Z,452.09
2023-06-19T11:38:46.667Z,395.75
2023-06-19T11:39:41.867Z,413.92
2023-06-19T11:40:37.537Z,423.92
2023-06-19T11:41:33.022Z,440.45
2023-06-19T11:42:28.669Z,469.27
2023-06-19T11:43:24.121Z,461.16
2023-06-19T11:44:19.777Z,443.67
2023-06-19T11:45:15.299Z,357.95
2023-06-19T11:46:10.959Z,367.58
2023-06-19T11:47:06.394Z,365.12
2023-06-19T11:48:01.776Z,396.22
2023-06-19T11:49:07.022Z,417.03
2023-06-19T11:49:53.833Z,427.18
2023-06-19T11:50:48.314Z,451.78